Tropical Cyclones
[Index]
Main Index Home Page Stock Weather Photos Extreme Storms Discussion Storm News and Storm Chasing Reports Tropical Cyclones / Hurricanes / Typhoons Weather Data and Links Wild Fires / Bushfires Weather Observation Techniques Weather Picture Catalogue Tornado Pictures and Reports Stock Video Footage and DVDs for sale
Season 1988-1989 Tropical Cyclone ORSON Track Map
Season 1988-1989 Summaries: [BoM-AU] [JTWC-AU] [JTWC-SIO] [JTWC-SPAC] [JTWC-SH]
<<- Previous TC | BoM 1988-1989 Season | Next TC ->>

click for intensity scale information  Lat/long Grid: Show Hide

 Date Labels: Show Hide

Bureau of Meteorology Tropical Cyclone Data

Name: ORSON
Number: 716 / 198889_10

17 Apr 1989 00:00 UTC to 24 Apr 1989 12:00 UTC

    date/time    lat    long    hPa   cat  kts
1989-04-17 00   10.0   129.0   1000         31          
1989-04-17 06   10.6   128.0    999         31          
1989-04-17 12   11.2   127.1    999         31          
1989-04-17 18   11.8   126.1    999         31          
1989-04-18 00   12.2   125.0    998         33          
1989-04-18 06   12.6   124.1    991    1    45          
1989-04-18 12   12.5   123.0    987    1    51          
1989-04-18 18   12.4   122.3    985    2    54          
1989-04-19 00   12.4   121.8    981    2    58          
1989-04-19 06   12.4   121.4    976    2    72          
1989-04-19 12   12.4   121.0    967    3    76          
1989-04-19 18   12.3   120.4    954    4    91          
1989-04-20 00   12.2   120.0    945    4    99          
1989-04-20 06   12.4   119.3    939    4    105          
1989-04-20 12   12.6   118.6    933    4    111          
1989-04-20 18   12.9   118.2    929    5    113          
1989-04-21 00   13.6   117.7    922    5    121          
1989-04-21 06   14.2   116.7    914    5    126          
1989-04-21 12   15.0   116.3    906    5    132          
1989-04-21 18   15.5   116.2    905    5    134          
1989-04-22 00   16.4   116.0    905    5    134          
1989-04-22 03   16.8   116.1    905    5    134          
1989-04-22 06   17.4   116.2    905    5    134          
1989-04-22 09   18.0   116.4    905    5    134          
1989-04-22 12   18.7   116.3    905    5    134          
1989-04-22 15   19.2   116.2    905    5    134          
1989-04-22 18   20.0   116.1    911    5    128          
1989-04-22 21   21.0   116.3    923    5    119          
1989-04-23 00   21.8   116.3    950    4    95          
1989-04-23 03   22.8   116.8    975    2    66          
1989-04-23 06   23.7   117.3    985    2    51          
1989-04-23 09   24.6   117.9    989    1    47          
1989-04-23 12   25.6   118.4    993    1    41          
1989-04-23 15   26.8   119.2    996         37          
1989-04-23 18   27.8   120.5    997         35          
1989-04-23 21   28.7   121.8    998         33          
1989-04-24 00   29.6   123.3    999         31          
1989-04-24 03   30.4   124.9   1000         31          
1989-04-24 06   31.0   126.6   1000         31          
1989-04-24 09   31.5   128.4   1000         31          
1989-04-24 12   32.0   130.2   1000         31          
Winds are 10-min average.

Tropical cyclone tracks developed by Michael Bath using data from the Bureau of Meteorology and Google Maps.


[Australian Severe Weather index] [Copyright Notice] [Email Contacts] [Search This Site] [Privacy Policy]
Document: tropical_cyclone_orson.htm Updated: 30 May 2013